createdAt,value
2022-08-25T00:01:34.350Z,6.90
2022-08-25T00:04:03.146Z,6.65
2022-08-25T00:06:30.530Z,6.95
2022-08-25T00:08:59.706Z,6.95
2022-08-25T00:11:28.135Z,6.75
2022-08-25T00:13:57.906Z,6.77
2022-08-25T00:16:26.616Z,7.13
2022-08-25T00:18:59.019Z,7.32
2022-08-25T00:21:26.848Z,6.95
2022-08-25T00:23:54.425Z,6.78
2022-08-25T00:26:22.049Z,6.63
2022-08-25T00:28:49.462Z,6.78
2022-08-25T00:31:18.321Z,7.30
2022-08-25T00:33:45.960Z,7.05
2022-08-25T00:36:13.013Z,7.18
2022-08-25T00:38:40.638Z,6.80
2022-08-25T00:41:10.778Z,6.75
2022-08-25T00:44:10.481Z,7.40
2022-08-25T00:46:39.945Z,7.00
2022-08-25T00:49:11.870Z,7.07
2022-08-25T00:51:55.184Z,7.23
2022-08-25T00:54:27.945Z,7.07
2022-08-25T00:56:56.594Z,7.38
2022-08-25T00:59:24.055Z,7.60
2022-08-25T01:01:52.060Z,6.95
2022-08-25T01:04:19.272Z,6.80
2022-08-25T01:06:46.494Z,6.90
2022-08-25T01:09:14.289Z,7.32
2022-08-25T01:11:42.501Z,7.07
2022-08-25T01:14:10.687Z,7.20
2022-08-25T01:16:38.647Z,7.27
2022-08-25T01:19:09.493Z,7.63
2022-08-25T01:21:44.264Z,7.60
2022-08-25T01:24:13.133Z,7.10
2022-08-25T01:26:40.489Z,8.18
2022-08-25T01:29:26.651Z,7.23
2022-08-25T01:31:57.344Z,7.35
2022-08-25T01:34:25.917Z,8.10
2022-08-25T01:36:53.581Z,7.65
2022-08-25T01:39:20.807Z,7.60
2022-08-25T01:42:06.518Z,7.63
2022-08-25T01:44:35.819Z,7.70
2022-08-25T01:47:04.268Z,7.60
2022-08-25T01:49:31.377Z,8.07
2022-08-25T01:52:02.702Z,8.40
2022-08-25T01:54:29.774Z,7.90
2022-08-25T01:56:56.908Z,8.02
2022-08-25T01:59:24.501Z,7.90
2022-08-25T02:01:51.825Z,8.15
2022-08-25T02:04:29.320Z,8.27
2022-08-25T02:06:56.803Z,8.20
2022-08-25T02:09:24.660Z,8.48
2022-08-25T02:11:51.756Z,8.50
2022-08-25T02:14:19.807Z,8.20
2022-08-25T02:16:49.465Z,7.90
2022-08-25T02:19:16.938Z,8.00
2022-08-25T02:21:44.360Z,7.60
2022-08-25T02:24:11.940Z,8.13
2022-08-25T02:26:39.286Z,7.72
2022-08-25T02:29:07.448Z,7.95
2022-08-25T02:31:34.791Z,8.07
2022-08-25T02:34:02.317Z,8.30
2022-08-25T02:36:29.886Z,7.68
2022-08-25T02:38:57.004Z,7.90
2022-08-25T02:41:31.434Z,7.30
2022-08-25T02:43:59.154Z,7.60
2022-08-25T02:46:26.293Z,7.20
2022-08-25T02:48:53.796Z,7.63
2022-08-25T02:51:22.558Z,6.90
2022-08-25T02:53:49.754Z,7.22
2022-08-25T02:56:18.436Z,7.20
2022-08-25T02:58:46.006Z,6.80
2022-08-25T03:01:13.867Z,6.35
2022-08-25T03:03:42.255Z,6.40
2022-08-25T03:06:12.457Z,5.95
2022-08-25T03:08:40.052Z,6.00
2022-08-25T03:11:07.551Z,5.53
2022-08-25T03:13:35.180Z,5.63
2022-08-25T03:16:03.134Z,5.18
2022-08-25T03:18:30.821Z,5.78
2022-08-25T03:20:58.281Z,5.80
2022-08-25T03:23:25.534Z,5.50
2022-08-25T03:26:13.431Z,5.78
2022-08-25T03:28:41.291Z,5.70
2022-08-25T03:31:08.699Z,5.53
2022-08-25T03:33:35.918Z,5.77
2022-08-25T03:36:03.098Z,5.75
2022-08-25T03:38:30.175Z,5.95
2022-08-25T03:40:57.508Z,5.65
2022-08-25T03:43:24.622Z,5.47
2022-08-25T03:45:51.728Z,5.30
2022-08-25T03:48:18.957Z,5.07
2022-08-25T03:50:51.791Z,5.25
2022-08-25T03:53:20.011Z,5.38
2022-08-25T03:55:47.216Z,5.95
2022-08-25T03:58:14.331Z,5.70
2022-08-25T04:00:41.865Z,5.32
2022-08-25T04:03:08.943Z,5.63
2022-08-25T04:05:36.047Z,5.80
2022-08-25T04:08:03.552Z,5.28
2022-08-25T04:10:31.134Z,6.00
2022-08-25T04:12:58.584Z,5.60
2022-08-25T04:15:28.925Z,5.50
2022-08-25T04:17:58.954Z,5.53
2022-08-25T04:20:26.212Z,5.07
2022-08-25T04:22:53.566Z,5.30
2022-08-25T04:25:20.711Z,5.20
2022-08-25T04:27:48.284Z,5.30
2022-08-25T04:30:15.611Z,5.32
2022-08-25T04:32:42.673Z,5.43
2022-08-25T04:35:10.488Z,5.27
2022-08-25T04:37:37.559Z,5.53
2022-08-25T04:40:05.119Z,5.72
2022-08-25T04:42:32.305Z,5.25
2022-08-25T04:45:01.717Z,5.75
2022-08-25T04:47:29.170Z,5.90
2022-08-25T04:49:56.530Z,5.30
2022-08-25T04:52:23.585Z,5.82
2022-08-25T04:54:50.763Z,5.85
2022-08-25T04:57:17.818Z,5.63
2022-08-25T04:59:44.881Z,5.53
2022-08-25T05:02:11.946Z,5.60
2022-08-25T05:04:39.347Z,5.82
2022-08-25T05:07:06.670Z,5.53
2022-08-25T05:09:34.405Z,5.85
2022-08-25T05:12:02.849Z,5.53
2022-08-25T05:14:30.331Z,5.72
2022-08-25T05:16:57.999Z,5.50
2022-08-25T05:19:25.441Z,5.57
2022-08-25T05:21:53.687Z,5.45
2022-08-25T05:24:21.501Z,5.77
2022-08-25T05:26:48.638Z,5.55
2022-08-25T05:29:15.845Z,5.38
2022-08-25T05:31:48.302Z,6.10
2022-08-25T05:34:18.753Z,5.10
2022-08-25T05:36:45.928Z,6.13
2022-08-25T05:39:13.417Z,5.85
2022-08-25T05:41:40.672Z,5.75
2022-08-25T05:44:07.745Z,5.20
2022-08-25T05:46:34.793Z,5.60
2022-08-25T05:49:01.911Z,4.80
2022-08-25T05:51:28.971Z,5.30
2022-08-25T05:53:56.059Z,5.35
2022-08-25T05:56:23.170Z,5.40
2022-08-25T05:58:50.632Z,4.82
2022-08-25T06:01:45.001Z,4.93
2022-08-25T06:04:12.804Z,4.80
2022-08-25T06:06:40.101Z,5.22
2022-08-25T06:09:08.676Z,5.32
2022-08-25T06:11:36.253Z,5.20
2022-08-25T06:14:03.332Z,4.50
2022-08-25T06:16:30.884Z,5.07
2022-08-25T06:18:58.172Z,5.32
2022-08-25T06:21:25.366Z,5.25
2022-08-25T06:23:52.793Z,4.82
2022-08-25T06:26:21.344Z,5.50
2022-08-25T06:28:49.021Z,5.30
2022-08-25T06:31:16.179Z,5.43
2022-08-25T06:33:44.043Z,6.95
2022-08-25T06:36:11.442Z,5.82
2022-08-25T06:38:38.581Z,5.90
2022-08-25T06:41:06.237Z,5.53
2022-08-25T06:43:33.985Z,5.50
2022-08-25T06:46:10.463Z,5.07
2022-08-25T06:48:37.783Z,5.55
2022-08-25T06:51:08.431Z,5.10
2022-08-25T06:53:38.153Z,5.40
2022-08-25T06:56:06.755Z,4.82
2022-08-25T06:58:33.969Z,4.95
2022-08-25T07:01:26.198Z,4.55
2022-08-25T07:03:57.998Z,5.13
2022-08-25T07:06:25.794Z,5.05
2022-08-25T07:08:52.867Z,6.20
2022-08-25T07:11:23.434Z,5.28
2022-08-25T07:13:50.927Z,5.13
2022-08-25T07:16:20.194Z,4.70
2022-08-25T07:18:47.817Z,4.93
2022-08-25T07:21:14.923Z,4.80
2022-08-25T07:23:42.295Z,5.10
2022-08-25T07:26:27.143Z,5.22
2022-08-25T07:28:59.667Z,4.90
2022-08-25T07:31:29.663Z,5.10
2022-08-25T07:34:16.355Z,5.00
2022-08-25T07:36:43.776Z,5.00
2022-08-25T07:39:10.916Z,5.43
2022-08-25T07:41:39.345Z,5.00
2022-08-25T07:44:07.463Z,5.00
2022-08-25T07:46:34.906Z,4.97
2022-08-25T07:49:02.067Z,5.20
2022-08-25T07:51:29.144Z,5.07
2022-08-25T07:53:56.816Z,4.60
2022-08-25T07:56:23.971Z,9.75
2022-08-25T07:58:51.222Z,5.50
2022-08-25T08:01:19.882Z,4.53
2022-08-25T08:03:51.206Z,5.18
2022-08-25T08:06:20.471Z,5.27
2022-08-25T08:08:49.292Z,4.28
2022-08-25T08:11:17.822Z,5.70
2022-08-25T08:13:46.587Z,4.85
2022-08-25T08:16:14.744Z,4.45
2022-08-25T08:18:42.946Z,4.27
2022-08-25T08:21:19.126Z,4.60
2022-08-25T08:23:48.362Z,4.80
2022-08-25T08:26:16.411Z,4.43
2022-08-25T08:28:43.511Z,4.90
2022-08-25T08:31:10.929Z,4.70
2022-08-25T08:33:40.666Z,4.68
2022-08-25T08:36:09.845Z,4.80
2022-08-25T08:38:37.516Z,4.30
2022-08-25T08:44:41.280Z,4.40
2022-08-25T08:47:21.021Z,4.30
2022-08-25T08:49:52.638Z,4.90
2022-08-25T08:52:23.572Z,4.95
2022-08-25T08:55:02.815Z,5.78
2022-08-25T08:57:36.225Z,4.60
2022-08-25T09:00:08.181Z,4.70
2022-08-25T09:02:50.584Z,4.85
2022-08-25T09:05:20.550Z,4.95
2022-08-25T09:07:55.054Z,5.18
2022-08-25T09:10:24.210Z,5.40
2022-08-25T09:12:59.488Z,5.10
2022-08-25T09:15:48.345Z,5.50
2022-08-25T09:18:19.259Z,5.22
2022-08-25T09:20:59.820Z,5.38
2022-08-25T09:23:29.636Z,4.80
2022-08-25T09:26:03.886Z,4.85
2022-08-25T09:28:33.802Z,4.60
2022-08-25T09:31:02.554Z,4.60
2022-08-25T09:33:33.465Z,5.15
2022-08-25T09:36:05.510Z,4.57
2022-08-25T09:38:33.620Z,4.45
2022-08-25T09:41:01.683Z,4.93
2022-08-25T09:43:41.451Z,5.07
2022-08-25T09:46:11.623Z,4.70
2022-08-25T09:48:45.175Z,4.67
2022-08-25T09:51:18.837Z,4.70
2022-08-25T09:53:51.332Z,5.20
2022-08-25T09:56:20.447Z,4.60
2022-08-25T09:58:47.523Z,4.78
2022-08-25T10:01:22.492Z,4.50
2022-08-25T10:04:00.909Z,5.10
2022-08-25T10:06:30.992Z,5.10
2022-08-25T10:08:59.977Z,5.00
2022-08-25T10:11:43.957Z,4.95
2022-08-25T10:14:29.643Z,4.93
2022-08-25T10:17:15.768Z,5.47
2022-08-25T10:19:43.326Z,5.22
2022-08-25T10:22:10.750Z,4.80
2022-08-25T10:24:38.675Z,5.00
2022-08-25T10:27:12.414Z,4.97
2022-08-25T10:30:04.363Z,4.65
2022-08-25T10:32:31.421Z,4.40
2022-08-25T10:35:07.978Z,4.63
2022-08-25T10:37:48.072Z,4.65
2022-08-25T10:40:21.399Z,4.10
2022-08-25T10:42:54.347Z,4.45
2022-08-25T10:45:41.654Z,4.63
2022-08-25T10:48:27.406Z,4.43
2022-08-25T10:50:57.546Z,4.80
2022-08-25T10:53:58.506Z,5.30
2022-08-25T10:56:28.357Z,4.43
2022-08-25T10:59:01.430Z,4.53
2022-08-25T11:01:32.971Z,4.20
2022-08-25T11:04:04.922Z,4.50
2022-08-25T11:06:46.375Z,5.20
2022-08-25T11:09:18.502Z,5.43
2022-08-25T11:11:53.137Z,4.72
2022-08-25T11:14:23.395Z,4.90
2022-08-25T11:16:56.910Z,4.80
2022-08-25T11:19:33.833Z,4.30
2022-08-25T11:22:13.060Z,4.85
2022-08-25T11:24:43.677Z,4.85
2022-08-25T11:27:13.718Z,4.40
2022-08-25T11:29:43.386Z,4.90
2022-08-25T11:32:11.191Z,5.10
2022-08-25T11:34:43.521Z,5.20
2022-08-25T11:37:26.400Z,4.72
2022-08-25T11:39:56.255Z,3.90
2022-08-25T11:42:29.329Z,4.95
2022-08-25T11:45:07.739Z,4.37
2022-08-25T11:47:41.579Z,4.43
2022-08-25T11:50:20.319Z,4.65
2022-08-25T11:52:53.794Z,4.22
2022-08-25T11:55:23.413Z,4.28
2022-08-25T11:57:53.515Z,4.27
2022-08-25T12:00:36.199Z,4.68
2022-08-25T12:03:21.851Z,4.70
2022-08-25T12:06:15.028Z,4.82
2022-08-25T12:08:50.764Z,4.82
2022-08-25T12:11:36.412Z,4.77
2022-08-25T12:14:18.943Z,4.72
2022-08-25T12:16:53.460Z,5.15
2022-08-25T12:19:28.850Z,5.05
2022-08-25T12:22:19.198Z,4.65
2022-08-25T12:24:57.416Z,5.40
2022-08-25T12:27:43.042Z,4.95
2022-08-25T12:30:20.804Z,5.22
2022-08-25T12:32:56.122Z,4.85
2022-08-25T12:35:23.204Z,5.28
2022-08-25T12:37:58.048Z,4.83
2022-08-25T12:40:29.059Z,5.00
2022-08-25T12:43:26.530Z,4.82
2022-08-25T12:45:55.216Z,4.72
2022-08-25T12:48:28.100Z,4.50
2022-08-25T12:50:57.865Z,4.40
2022-08-25T12:53:41.780Z,4.90
2022-08-25T12:56:09.075Z,5.80
2022-08-25T12:59:00.183Z,5.65
2022-08-25T13:01:36.289Z,5.28
2022-08-25T13:04:06.878Z,5.47
2022-08-25T13:06:36.479Z,4.80
2022-08-25T13:09:10.870Z,5.20
2022-08-25T13:11:46.329Z,5.30
2022-08-25T13:14:20.461Z,5.30
2022-08-25T13:16:56.008Z,4.83
2022-08-25T13:19:23.167Z,4.85
2022-08-25T13:21:50.404Z,5.03
2022-08-25T13:24:27.220Z,5.00
2022-08-25T13:26:58.721Z,4.82
2022-08-25T13:29:28.011Z,4.30
2022-08-25T13:32:12.688Z,4.53
2022-08-25T13:34:42.579Z,4.60
2022-08-25T13:37:30.400Z,4.28
2022-08-25T13:40:17.827Z,4.72
2022-08-25T13:42:52.960Z,4.57
2022-08-25T13:45:24.841Z,4.40
2022-08-25T13:47:55.715Z,4.93
2022-08-25T13:50:42.593Z,4.13
2022-08-25T13:53:12.910Z,5.00
2022-08-25T13:55:50.853Z,4.70
2022-08-25T13:58:24.260Z,5.10
2022-08-25T14:01:22.964Z,4.60
2022-08-25T14:03:54.936Z,4.38
2022-08-25T14:06:26.693Z,5.05
2022-08-25T14:08:57.299Z,5.00
2022-08-25T14:11:43.861Z,4.70
2022-08-25T14:14:12.981Z,4.82
2022-08-25T14:16:43.417Z,5.13
2022-08-25T14:19:19.352Z,5.13
2022-08-25T14:21:47.318Z,4.83
2022-08-25T14:24:22.527Z,5.65
2022-08-25T14:26:54.005Z,4.88
2022-08-25T14:29:22.114Z,4.68
2022-08-25T14:31:49.606Z,4.60
2022-08-25T14:34:22.369Z,4.70
2022-08-25T14:36:51.162Z,4.85
2022-08-25T14:39:18.334Z,5.15
2022-08-25T14:41:52.470Z,4.88
2022-08-25T14:44:20.551Z,4.80
2022-08-25T14:46:51.784Z,5.40
2022-08-25T14:49:24.958Z,5.30
2022-08-25T14:51:52.366Z,5.75
2022-08-25T14:54:21.890Z,5.45
2022-08-25T14:56:50.777Z,5.97
2022-08-25T14:59:18.448Z,5.43
2022-08-25T15:01:45.657Z,5.10
2022-08-25T15:04:17.766Z,5.50
2022-08-25T15:06:46.847Z,4.72
2022-08-25T15:09:16.367Z,5.20
2022-08-25T15:11:44.730Z,5.37
2022-08-25T15:14:15.326Z,5.20
2022-08-25T15:16:46.243Z,5.25
2022-08-25T15:19:15.944Z,5.38
2022-08-25T15:21:44.300Z,4.97
2022-08-25T15:24:11.913Z,4.63
2022-08-25T15:26:47.022Z,5.32
2022-08-25T15:29:14.200Z,4.90
2022-08-25T15:31:42.855Z,5.63
2022-08-25T15:34:11.620Z,5.25
2022-08-25T15:36:39.532Z,4.70
2022-08-25T15:39:07.012Z,4.97
2022-08-25T15:41:37.385Z,5.50
2022-08-25T15:44:06.246Z,5.10
2022-08-25T15:46:36.306Z,5.45
2022-08-25T15:49:03.499Z,5.07
2022-08-25T15:51:31.267Z,4.93
2022-08-25T15:53:58.415Z,4.82
2022-08-25T15:56:26.841Z,5.40
2022-08-25T15:58:55.302Z,4.47
2022-08-25T16:01:24.867Z,5.53
2022-08-25T16:03:52.453Z,5.18
2022-08-25T16:06:19.651Z,5.30
2022-08-25T16:08:47.521Z,5.20
2022-08-25T16:11:22.203Z,5.25
2022-08-25T16:13:50.518Z,4.70
2022-08-25T16:16:18.116Z,4.97
2022-08-25T16:18:45.944Z,4.90
2022-08-25T16:21:14.205Z,5.43
2022-08-25T16:23:41.615Z,5.57
2022-08-25T16:26:10.810Z,5.70
2022-08-25T16:28:40.857Z,10.02
2022-08-25T16:31:12.378Z,9.57
2022-08-25T16:33:39.774Z,10.38
2022-08-25T16:36:08.043Z,6.10
2022-08-25T16:38:36.426Z,5.50
2022-08-25T16:41:10.107Z,5.45
2022-08-25T16:43:37.193Z,5.30
2022-08-25T16:46:06.631Z,5.35
2022-08-25T16:48:34.010Z,5.45
2022-08-25T16:51:01.095Z,5.67
2022-08-25T16:53:47.323Z,5.38
2022-08-25T16:56:15.906Z,5.28
2022-08-25T16:58:44.592Z,5.95
2022-08-25T17:01:13.693Z,6.30
2022-08-25T17:03:44.082Z,6.90
2022-08-25T17:06:14.076Z,7.70
2022-08-25T17:08:42.238Z,7.90
2022-08-25T17:11:14.126Z,7.63
2022-08-25T17:13:44.664Z,7.07
2022-08-25T17:16:12.279Z,6.23
2022-08-25T17:18:42.546Z,6.50
2022-08-25T17:21:12.465Z,7.25
2022-08-25T17:23:46.663Z,6.75
2022-08-25T17:26:15.131Z,7.50
2022-08-25T17:28:42.268Z,7.43
2022-08-25T17:31:10.285Z,7.50
2022-08-25T17:33:37.547Z,9.05
2022-08-25T17:36:06.275Z,8.65
2022-08-25T17:38:34.025Z,10.43
2022-08-25T17:41:02.426Z,9.13
2022-08-25T17:43:32.318Z,9.38
2022-08-25T17:45:59.426Z,9.90
2022-08-25T17:48:26.886Z,11.13
2022-08-25T17:50:54.646Z,11.77
2022-08-25T17:53:22.187Z,11.83
2022-08-25T17:55:56.850Z,12.60
2022-08-25T17:58:25.747Z,13.43
2022-08-25T18:00:54.852Z,14.10
2022-08-25T18:03:22.246Z,14.43
2022-08-25T18:05:50.450Z,14.30
2022-08-25T18:08:18.702Z,15.20
2022-08-25T18:10:47.386Z,15.35
2022-08-25T18:13:14.695Z,13.65
2022-08-25T18:15:42.722Z,15.80
2022-08-25T18:18:12.479Z,14.67
2022-08-25T18:20:39.955Z,14.02
2022-08-25T18:23:09.709Z,14.00
2022-08-25T18:25:37.038Z,14.82
2022-08-25T18:28:09.161Z,14.20
2022-08-25T18:30:36.636Z,13.60
2022-08-25T18:33:03.740Z,14.18
2022-08-25T18:35:30.862Z,14.25
2022-08-25T18:38:17.393Z,13.27
2022-08-25T18:40:44.926Z,13.57
2022-08-25T18:43:13.766Z,12.47
2022-08-25T18:45:47.718Z,13.40
2022-08-25T18:48:15.274Z,12.88
2022-08-25T18:50:43.416Z,13.30
2022-08-25T18:53:10.947Z,12.70
2022-08-25T18:55:38.538Z,13.13
2022-08-25T18:58:06.489Z,14.52
2022-08-25T19:00:34.610Z,13.90
2022-08-25T19:03:02.209Z,15.52
2022-08-25T19:05:32.562Z,14.85
2022-08-25T19:08:01.820Z,15.97
2022-08-25T19:10:30.415Z,16.15
2022-08-25T19:13:07.895Z,16.23
2022-08-25T19:15:36.158Z,17.20
2022-08-25T19:18:06.815Z,20.10
2022-08-25T19:20:37.233Z,19.17
2022-08-25T19:23:04.534Z,21.00
2022-08-25T19:25:34.987Z,22.58
2022-08-25T19:28:07.508Z,25.42
2022-08-25T19:30:39.688Z,25.40
2022-08-25T19:33:37.145Z,25.07
2022-08-25T19:36:08.555Z,27.10
2022-08-25T19:38:35.998Z,28.38
2022-08-25T19:41:14.142Z,27.55
2022-08-25T19:43:56.781Z,29.80
2022-08-25T19:46:33.030Z,28.17
2022-08-25T19:49:07.766Z,30.48
2022-08-25T19:51:36.738Z,30.42
2022-08-25T19:54:04.934Z,30.80
2022-08-25T19:56:35.034Z,31.90
2022-08-25T19:59:03.558Z,31.73
2022-08-25T20:01:30.655Z,31.25
2022-08-25T20:03:57.808Z,33.03
2022-08-25T20:06:27.746Z,30.98
2022-08-25T20:08:58.980Z,32.58
2022-08-25T20:11:28.821Z,31.33
2022-08-25T20:13:58.288Z,32.00
2022-08-25T20:16:28.774Z,31.95
2022-08-25T20:18:56.190Z,31.48
2022-08-25T20:21:24.591Z,31.33
2022-08-25T20:24:10.185Z,30.60
2022-08-25T20:26:37.287Z,29.95
2022-08-25T20:29:05.276Z,29.23
2022-08-25T20:31:33.008Z,28.48
2022-08-25T20:34:00.979Z,28.20
2022-08-25T20:36:30.204Z,27.20
2022-08-25T20:38:59.042Z,27.05
2022-08-25T20:41:27.349Z,25.75
2022-08-25T20:43:54.443Z,26.08
2022-08-25T20:46:23.118Z,25.60
2022-08-25T20:48:50.237Z,24.53
2022-08-25T20:51:18.686Z,21.83
2022-08-25T20:53:45.903Z,22.50
2022-08-25T20:56:14.341Z,21.08
2022-08-25T20:58:41.722Z,19.98
2022-08-25T21:01:37.766Z,19.80
2022-08-25T21:04:11.340Z,18.58
2022-08-25T21:06:41.596Z,18.40
2022-08-25T21:09:15.705Z,17.48
2022-08-25T21:11:43.371Z,17.55
2022-08-25T21:14:10.542Z,17.20
2022-08-25T21:16:40.829Z,16.55
2022-08-25T21:19:09.048Z,16.42
2022-08-25T21:21:38.573Z,16.95
2022-08-25T21:24:09.263Z,17.15
2022-08-25T21:26:37.414Z,16.57
2022-08-25T21:29:15.289Z,15.77
2022-08-25T21:31:42.655Z,16.00
2022-08-25T21:34:11.433Z,15.00
2022-08-25T21:36:39.095Z,15.20
2022-08-25T21:39:06.289Z,13.53
2022-08-25T21:41:34.138Z,13.38
2022-08-25T21:44:01.740Z,13.75
2022-08-25T21:46:30.873Z,13.07
2022-08-25T21:48:58.465Z,13.05
2022-08-25T21:51:41.163Z,12.27
2022-08-25T21:54:10.347Z,10.77
2022-08-25T21:56:40.124Z,9.98
2022-08-25T21:59:13.431Z,9.45
2022-08-25T22:01:41.133Z,8.50
2022-08-25T22:04:08.873Z,7.80
2022-08-25T22:06:36.650Z,7.63
2022-08-25T22:09:05.226Z,6.82
2022-08-25T22:11:33.975Z,6.20
2022-08-25T22:14:04.422Z,6.10
2022-08-25T22:16:32.974Z,5.40
2022-08-25T22:19:00.172Z,5.47
2022-08-25T22:21:28.036Z,5.50
2022-08-25T22:23:55.984Z,5.43
2022-08-25T22:26:23.671Z,5.00
2022-08-25T22:28:54.619Z,4.53
2022-08-25T22:31:21.860Z,4.68
2022-08-25T22:33:50.410Z,4.53
2022-08-25T22:36:22.599Z,5.00
2022-08-25T22:38:51.797Z,4.32
2022-08-25T22:41:21.424Z,4.33
2022-08-25T22:43:49.063Z,4.68
2022-08-25T22:46:17.161Z,4.28
2022-08-25T22:48:44.753Z,3.92
2022-08-25T22:51:17.654Z,3.90
2022-08-25T22:53:46.014Z,3.97
2022-08-25T22:56:13.610Z,3.80
2022-08-25T22:58:51.975Z,3.45
2022-08-25T23:01:21.011Z,3.38
2022-08-25T23:03:48.533Z,3.35
2022-08-25T23:06:20.860Z,3.13
2022-08-25T23:08:52.127Z,3.13
2022-08-25T23:11:21.453Z,3.30
2022-08-25T23:13:48.507Z,3.58
2022-08-25T23:16:15.962Z,3.38
2022-08-25T23:18:44.836Z,3.20
2022-08-25T23:21:37.892Z,2.85
2022-08-25T23:24:08.760Z,3.42
2022-08-25T23:26:42.480Z,3.05
2022-08-25T23:29:18.846Z,3.33
2022-08-25T23:31:46.793Z,2.90
2022-08-25T23:34:14.814Z,3.33
2022-08-25T23:36:41.937Z,3.53
2022-08-25T23:39:09.463Z,3.50
2022-08-25T23:41:36.865Z,3.10
2022-08-25T23:44:05.322Z,3.20
2022-08-25T23:46:34.894Z,3.08
2022-08-25T23:49:02.746Z,3.30
2022-08-25T23:51:33.442Z,3.03
2022-08-25T23:54:05.772Z,3.17
2022-08-25T23:56:34.040Z,3.33
2022-08-25T23:59:02.481Z,3.20
